sensor_id;sensor_type;location;lat;lon;timestamp;P1;durP1;ratioP1;P2;durP2;ratioP2
54388;SDS011;40975;50.390;8.640;2023-11-19T00:01:06;2.83;;;1.95;;
54388;SDS011;40975;50.390;8.640;2023-11-19T00:03:32;2.97;;;2.50;;
54388;SDS011;40975;50.390;8.640;2023-11-19T00:05:58;3.83;;;2.47;;
54388;SDS011;40975;50.390;8.640;2023-11-19T00:08:24;3.78;;;2.85;;
54388;SDS011;40975;50.390;8.640;2023-11-19T00:10:50;4.72;;;2.83;;
54388;SDS011;40975;50.390;8.640;2023-11-19T00:13:16;4.85;;;3.53;;
54388;SDS011;40975;50.390;8.640;2023-11-19T00:15:41;4.45;;;3.13;;
54388;SDS011;40975;50.390;8.640;2023-11-19T00:18:06;4.60;;;2.67;;
54388;SDS011;40975;50.390;8.640;2023-11-19T00:20:32;3.78;;;2.67;;
54388;SDS011;40975;50.390;8.640;2023-11-19T00:22:57;4.32;;;3.05;;
54388;SDS011;40975;50.390;8.640;2023-11-19T00:25:22;6.05;;;3.42;;
54388;SDS011;40975;50.390;8.640;2023-11-19T00:27:48;6.55;;;3.45;;
54388;SDS011;40975;50.390;8.640;2023-11-19T00:30:13;5.00;;;3.50;;
54388;SDS011;40975;50.390;8.640;2023-11-19T00:32:39;4.68;;;3.33;;
54388;SDS011;40975;50.390;8.640;2023-11-19T00:35:05;3.83;;;2.70;;
54388;SDS011;40975;50.390;8.640;2023-11-19T00:37:32;6.88;;;2.92;;
54388;SDS011;40975;50.390;8.640;2023-11-19T00:39:57;3.83;;;2.50;;
54388;SDS011;40975;50.390;8.640;2023-11-19T00:42:23;1.70;;;1.58;;
54388;SDS011;40975;50.390;8.640;2023-11-19T00:44:49;1.55;;;1.35;;
54388;SDS011;40975;50.390;8.640;2023-11-19T00:47:17;1.20;;;1.10;;
54388;SDS011;40975;50.390;8.640;2023-11-19T00:49:46;1.05;;;0.90;;
54388;SDS011;40975;50.390;8.640;2023-11-19T00:52:14;0.75;;;0.75;;
54388;SDS011;40975;50.390;8.640;2023-11-19T00:54:40;1.55;;;1.13;;
54388;SDS011;40975;50.390;8.640;2023-11-19T00:57:05;1.63;;;1.20;;
54388;SDS011;40975;50.390;8.640;2023-11-19T00:59:30;1.55;;;1.20;;
54388;SDS011;40975;50.390;8.640;2023-11-19T01:01:56;2.58;;;1.20;;
54388;SDS011;40975;50.390;8.640;2023-11-19T01:04:22;1.38;;;1.10;;
54388;SDS011;40975;50.390;8.640;2023-11-19T01:06:49;1.70;;;1.08;;
54388;SDS011;40975;50.390;8.640;2023-11-19T01:09:15;0.80;;;0.80;;
54388;SDS011;40975;50.390;8.640;2023-11-19T01:11:40;0.70;;;0.63;;
54388;SDS011;40975;50.390;8.640;2023-11-19T01:14:05;1.27;;;0.90;;
54388;SDS011;40975;50.390;8.640;2023-11-19T01:16:31;3.97;;;0.90;;
54388;SDS011;40975;50.390;8.640;2023-11-19T01:18:56;1.75;;;0.82;;
54388;SDS011;40975;50.390;8.640;2023-11-19T01:21:21;1.10;;;0.95;;
54388;SDS011;40975;50.390;8.640;2023-11-19T01:23:47;1.23;;;1.00;;
54388;SDS011;40975;50.390;8.640;2023-11-19T01:26:12;1.08;;;0.70;;
54388;SDS011;40975;50.390;8.640;2023-11-19T01:28:41;1.40;;;0.80;;
54388;SDS011;40975;50.390;8.640;2023-11-19T01:31:10;0.98;;;0.77;;
54388;SDS011;40975;50.390;8.640;2023-11-19T01:33:36;0.50;;;0.50;;
54388;SDS011;40975;50.390;8.640;2023-11-19T01:36:01;0.75;;;0.60;;
54388;SDS011;40975;50.390;8.640;2023-11-19T01:38:27;1.00;;;0.77;;
54388;SDS011;40975;50.390;8.640;2023-11-19T01:40:56;0.85;;;0.60;;
54388;SDS011;40975;50.390;8.640;2023-11-19T01:43:35;0.55;;;0.55;;
54388;SDS011;40975;50.390;8.640;2023-11-19T01:46:07;1.38;;;0.80;;
54388;SDS011;40975;50.390;8.640;2023-11-19T01:48:35;0.85;;;0.77;;
54388;SDS011;40975;50.390;8.640;2023-11-19T01:51:05;1.55;;;1.17;;
54388;SDS011;40975;50.390;8.640;2023-11-19T01:53:33;0.98;;;0.70;;
54388;SDS011;40975;50.390;8.640;2023-11-19T01:56:01;0.93;;;0.82;;
54388;SDS011;40975;50.390;8.640;2023-11-19T01:58:28;0.77;;;0.50;;
54388;SDS011;40975;50.390;8.640;2023-11-19T02:00:55;0.90;;;0.60;;
54388;SDS011;40975;50.390;8.640;2023-11-19T02:03:22;2.22;;;0.60;;
54388;SDS011;40975;50.390;8.640;2023-11-19T02:05:50;1.10;;;0.90;;
54388;SDS011;40975;50.390;8.640;2023-11-19T02:08:16;5.22;;;1.10;;
54388;SDS011;40975;50.390;8.640;2023-11-19T02:10:41;1.20;;;0.63;;
54388;SDS011;40975;50.390;8.640;2023-11-19T02:13:08;1.33;;;0.90;;
54388;SDS011;40975;50.390;8.640;2023-11-19T02:15:35;1.70;;;0.70;;
54388;SDS011;40975;50.390;8.640;2023-11-19T02:18:19;1.27;;;1.00;;
54388;SDS011;40975;50.390;8.640;2023-11-19T02:20:46;0.65;;;0.65;;
54388;SDS011;40975;50.390;8.640;2023-11-19T02:23:13;1.17;;;0.90;;
54388;SDS011;40975;50.390;8.640;2023-11-19T02:25:38;0.90;;;0.85;;
54388;SDS011;40975;50.390;8.640;2023-11-19T02:28:05;1.30;;;1.20;;
54388;SDS011;40975;50.390;8.640;2023-11-19T02:30:31;1.17;;;0.80;;
54388;SDS011;40975;50.390;8.640;2023-11-19T02:32:57;1.33;;;1.00;;
54388;SDS011;40975;50.390;8.640;2023-11-19T02:35:25;1.52;;;1.40;;
54388;SDS011;40975;50.390;8.640;2023-11-19T02:37:51;1.30;;;0.95;;
54388;SDS011;40975;50.390;8.640;2023-11-19T02:40:17;2.15;;;1.20;;
54388;SDS011;40975;50.390;8.640;2023-11-19T02:42:42;1.13;;;0.98;;
54388;SDS011;40975;50.390;8.640;2023-11-19T02:45:08;2.10;;;1.40;;
54388;SDS011;40975;50.390;8.640;2023-11-19T02:47:39;1.07;;;0.90;;
54388;SDS011;40975;50.390;8.640;2023-11-19T02:50:05;1.83;;;1.15;;
54388;SDS011;40975;50.390;8.640;2023-11-19T02:52:38;4.03;;;1.73;;
54388;SDS011;40975;50.390;8.640;2023-11-19T02:55:04;2.03;;;1.40;;
54388;SDS011;40975;50.390;8.640;2023-11-19T02:57:34;2.10;;;1.48;;
54388;SDS011;40975;50.390;8.640;2023-11-19T02:59:59;1.85;;;1.50;;
54388;SDS011;40975;50.390;8.640;2023-11-19T03:02:25;2.80;;;1.63;;
54388;SDS011;40975;50.390;8.640;2023-11-19T03:04:58;2.20;;;1.30;;
54388;SDS011;40975;50.390;8.640;2023-11-19T03:07:24;2.17;;;1.75;;
54388;SDS011;40975;50.390;8.640;2023-11-19T03:09:49;2.38;;;1.70;;
54388;SDS011;40975;50.390;8.640;2023-11-19T03:12:14;2.22;;;1.45;;
54388;SDS011;40975;50.390;8.640;2023-11-19T03:14:40;3.50;;;1.40;;
54388;SDS011;40975;50.390;8.640;2023-11-19T03:17:05;2.78;;;1.52;;
54388;SDS011;40975;50.390;8.640;2023-11-19T03:19:30;2.08;;;1.33;;
54388;SDS011;40975;50.390;8.640;2023-11-19T03:21:56;3.20;;;1.52;;
54388;SDS011;40975;50.390;8.640;2023-11-19T03:24:21;2.33;;;1.50;;
54388;SDS011;40975;50.390;8.640;2023-11-19T03:26:50;2.83;;;1.80;;
54388;SDS011;40975;50.390;8.640;2023-11-19T03:29:15;3.15;;;1.92;;
54388;SDS011;40975;50.390;8.640;2023-11-19T03:31:43;2.92;;;1.85;;
54388;SDS011;40975;50.390;8.640;2023-11-19T03:34:09;2.10;;;1.40;;
54388;SDS011;40975;50.390;8.640;2023-11-19T03:36:35;1.73;;;1.50;;
54388;SDS011;40975;50.390;8.640;2023-11-19T03:39:00;2.45;;;1.65;;
54388;SDS011;40975;50.390;8.640;2023-11-19T03:41:26;1.45;;;1.27;;
54388;SDS011;40975;50.390;8.640;2023-11-19T03:43:51;1.77;;;1.60;;
54388;SDS011;40975;50.390;8.640;2023-11-19T03:46:19;1.65;;;1.20;;
54388;SDS011;40975;50.390;8.640;2023-11-19T03:48:49;1.92;;;1.30;;
54388;SDS011;40975;50.390;8.640;2023-11-19T03:51:14;3.15;;;1.42;;
54388;SDS011;40975;50.390;8.640;2023-11-19T03:53:43;1.02;;;0.93;;
54388;SDS011;40975;50.390;8.640;2023-11-19T03:56:09;1.40;;;1.00;;
54388;SDS011;40975;50.390;8.640;2023-11-19T03:58:36;2.47;;;0.90;;
54388;SDS011;40975;50.390;8.640;2023-11-19T04:01:01;2.22;;;1.08;;
54388;SDS011;40975;50.390;8.640;2023-11-19T04:03:27;0.60;;;0.60;;
54388;SDS011;40975;50.390;8.640;2023-11-19T04:05:53;1.17;;;0.80;;
54388;SDS011;40975;50.390;8.640;2023-11-19T04:08:18;0.60;;;0.40;;
54388;SDS011;40975;50.390;8.640;2023-11-19T04:10:43;0.82;;;0.57;;
54388;SDS011;40975;50.390;8.640;2023-11-19T04:13:09;0.63;;;0.60;;
54388;SDS011;40975;50.390;8.640;2023-11-19T04:15:35;0.80;;;0.50;;
54388;SDS011;40975;50.390;8.640;2023-11-19T04:18:00;1.67;;;0.43;;
54388;SDS011;40975;50.390;8.640;2023-11-19T04:20:26;0.77;;;0.50;;
54388;SDS011;40975;50.390;8.640;2023-11-19T04:22:54;1.20;;;0.50;;
54388;SDS011;40975;50.390;8.640;2023-11-19T04:25:19;1.95;;;0.30;;
54388;SDS011;40975;50.390;8.640;2023-11-19T04:27:45;0.95;;;0.60;;
54388;SDS011;40975;50.390;8.640;2023-11-19T04:30:11;0.73;;;0.47;;
54388;SDS011;40975;50.390;8.640;2023-11-19T04:32:36;0.50;;;0.50;;
54388;SDS011;40975;50.390;8.640;2023-11-19T04:35:02;0.73;;;0.40;;
54388;SDS011;40975;50.390;8.640;2023-11-19T04:37:28;0.40;;;0.30;;
54388;SDS011;40975;50.390;8.640;2023-11-19T04:39:53;0.57;;;0.40;;
54388;SDS011;40975;50.390;8.640;2023-11-19T04:42:19;0.30;;;0.17;;
54388;SDS011;40975;50.390;8.640;2023-11-19T04:44:46;0.20;;;0.20;;
54388;SDS011;40975;50.390;8.640;2023-11-19T04:47:12;0.10;;;0.10;;
54388;SDS011;40975;50.390;8.640;2023-11-19T04:49:40;0.20;;;0.20;;
54388;SDS011;40975;50.390;8.640;2023-11-19T04:52:08;0.20;;;0.20;;
54388;SDS011;40975;50.390;8.640;2023-11-19T04:54:34;0.30;;;0.30;;
54388;SDS011;40975;50.390;8.640;2023-11-19T04:56:59;0.20;;;0.20;;
54388;SDS011;40975;50.390;8.640;2023-11-19T04:59:25;0.35;;;0.32;;
54388;SDS011;40975;50.390;8.640;2023-11-19T05:01:50;0.15;;;0.15;;
54388;SDS011;40975;50.390;8.640;2023-11-19T05:04:15;1.80;;;0.25;;
54388;SDS011;40975;50.390;8.640;2023-11-19T05:06:41;1.27;;;0.52;;
54388;SDS011;40975;50.390;8.640;2023-11-19T05:09:06;0.40;;;0.30;;
54388;SDS011;40975;50.390;8.640;2023-11-19T05:11:33;1.75;;;0.30;;
54388;SDS011;40975;50.390;8.640;2023-11-19T05:13:59;2.92;;;0.22;;
54388;SDS011;40975;50.390;8.640;2023-11-19T05:16:25;0.20;;;0.20;;
54388;SDS011;40975;50.390;8.640;2023-11-19T05:18:50;0.28;;;0.20;;
54388;SDS011;40975;50.390;8.640;2023-11-19T05:21:15;0.20;;;0.20;;
54388;SDS011;40975;50.390;8.640;2023-11-19T05:23:42;0.50;;;0.15;;
54388;SDS011;40975;50.390;8.640;2023-11-19T05:26:07;0.13;;;0.10;;
54388;SDS011;40975;50.390;8.640;2023-11-19T05:28:34;0.10;;;0.10;;
54388;SDS011;40975;50.390;8.640;2023-11-19T05:30:59;0.22;;;0.17;;
54388;SDS011;40975;50.390;8.640;2023-11-19T05:33:24;1.20;;;0.20;;
54388;SDS011;40975;50.390;8.640;2023-11-19T05:35:50;0.45;;;0.20;;
54388;SDS011;40975;50.390;8.640;2023-11-19T05:38:15;0.22;;;0.20;;
54388;SDS011;40975;50.390;8.640;2023-11-19T05:40:41;0.43;;;0.20;;
54388;SDS011;40975;50.390;8.640;2023-11-19T05:43:06;0.20;;;0.20;;
54388;SDS011;40975;50.390;8.640;2023-11-19T05:45:32;0.13;;;0.10;;
54388;SDS011;40975;50.390;8.640;2023-11-19T05:47:57;0.20;;;0.20;;
54388;SDS011;40975;50.390;8.640;2023-11-19T05:50:23;0.28;;;0.20;;
54388;SDS011;40975;50.390;8.640;2023-11-19T05:52:48;0.40;;;0.20;;
54388;SDS011;40975;50.390;8.640;2023-11-19T05:55:13;0.38;;;0.20;;
54388;SDS011;40975;50.390;8.640;2023-11-19T05:57:39;0.15;;;0.15;;
54388;SDS011;40975;50.390;8.640;2023-11-19T06:00:07;0.22;;;0.22;;
54388;SDS011;40975;50.390;8.640;2023-11-19T06:02:36;1.27;;;0.20;;
54388;SDS011;40975;50.390;8.640;2023-11-19T06:05:03;0.47;;;0.30;;
54388;SDS011;40975;50.390;8.640;2023-11-19T06:07:30;0.40;;;0.15;;
54388;SDS011;40975;50.390;8.640;2023-11-19T06:09:56;0.80;;;0.20;;
54388;SDS011;40975;50.390;8.640;2023-11-19T06:12:21;0.45;;;0.20;;
54388;SDS011;40975;50.390;8.640;2023-11-19T06:14:47;0.38;;;0.20;;
54388;SDS011;40975;50.390;8.640;2023-11-19T06:17:12;0.10;;;0.10;;
54388;SDS011;40975;50.390;8.640;2023-11-19T06:19:38;0.90;;;0.35;;
54388;SDS011;40975;50.390;8.640;2023-11-19T06:22:04;0.52;;;0.30;;
54388;SDS011;40975;50.390;8.640;2023-11-19T06:24:29;1.15;;;0.20;;
54388;SDS011;40975;50.390;8.640;2023-11-19T06:26:54;2.15;;;0.30;;
54388;SDS011;40975;50.390;8.640;2023-11-19T06:29:20;0.38;;;0.22;;
54388;SDS011;40975;50.390;8.640;2023-11-19T06:31:45;0.75;;;0.30;;
54388;SDS011;40975;50.390;8.640;2023-11-19T06:34:13;0.13;;;0.13;;
54388;SDS011;40975;50.390;8.640;2023-11-19T06:36:39;1.63;;;0.50;;
54388;SDS011;40975;50.390;8.640;2023-11-19T06:39:04;0.28;;;0.22;;
54388;SDS011;40975;50.390;8.640;2023-11-19T06:41:30;0.73;;;0.45;;
54388;SDS011;40975;50.390;8.640;2023-11-19T06:43:56;0.43;;;0.28;;
54388;SDS011;40975;50.390;8.640;2023-11-19T06:46:21;0.77;;;0.35;;
54388;SDS011;40975;50.390;8.640;2023-11-19T06:48:47;2.05;;;0.55;;
54388;SDS011;40975;50.390;8.640;2023-11-19T06:51:12;2.20;;;0.80;;
54388;SDS011;40975;50.390;8.640;2023-11-19T06:53:38;1.02;;;0.50;;
54388;SDS011;40975;50.390;8.640;2023-11-19T06:56:05;1.35;;;0.40;;
54388;SDS011;40975;50.390;8.640;2023-11-19T06:58:40;3.97;;;0.52;;
54388;SDS011;40975;50.390;8.640;2023-11-19T07:01:06;0.40;;;0.40;;
54388;SDS011;40975;50.390;8.640;2023-11-19T07:03:33;1.90;;;0.50;;
54388;SDS011;40975;50.390;8.640;2023-11-19T07:06:00;1.13;;;0.50;;
54388;SDS011;40975;50.390;8.640;2023-11-19T07:08:25;1.73;;;0.73;;
54388;SDS011;40975;50.390;8.640;2023-11-19T07:10:51;1.60;;;0.50;;
54388;SDS011;40975;50.390;8.640;2023-11-19T07:13:17;2.08;;;0.20;;
54388;SDS011;40975;50.390;8.640;2023-11-19T07:15:42;2.20;;;0.40;;
54388;SDS011;40975;50.390;8.640;2023-11-19T07:18:08;0.75;;;0.43;;
54388;SDS011;40975;50.390;8.640;2023-11-19T07:20:33;3.50;;;0.40;;
54388;SDS011;40975;50.390;8.640;2023-11-19T07:22:58;0.90;;;0.68;;
54388;SDS011;40975;50.390;8.640;2023-11-19T07:25:24;6.22;;;1.85;;
54388;SDS011;40975;50.390;8.640;2023-11-19T07:27:49;4.07;;;1.55;;
54388;SDS011;40975;50.390;8.640;2023-11-19T07:30:17;3.33;;;2.22;;
54388;SDS011;40975;50.390;8.640;2023-11-19T07:32:43;0.82;;;0.70;;
54388;SDS011;40975;50.390;8.640;2023-11-19T07:35:08;2.22;;;0.60;;
54388;SDS011;40975;50.390;8.640;2023-11-19T07:37:34;4.60;;;0.70;;
54388;SDS011;40975;50.390;8.640;2023-11-19T07:39:59;2.72;;;0.38;;
54388;SDS011;40975;50.390;8.640;2023-11-19T07:42:24;3.58;;;0.50;;
54388;SDS011;40975;50.390;8.640;2023-11-19T07:44:50;0.80;;;0.57;;
54388;SDS011;40975;50.390;8.640;2023-11-19T07:47:15;2.63;;;0.68;;
54388;SDS011;40975;50.390;8.640;2023-11-19T07:49:40;3.35;;;1.60;;
54388;SDS011;40975;50.390;8.640;2023-11-19T07:52:08;1.63;;;0.60;;
54388;SDS011;40975;50.390;8.640;2023-11-19T07:54:34;4.28;;;0.77;;
54388;SDS011;40975;50.390;8.640;2023-11-19T07:56:59;1.05;;;0.70;;
54388;SDS011;40975;50.390;8.640;2023-11-19T07:59:24;1.88;;;0.43;;
54388;SDS011;40975;50.390;8.640;2023-11-19T08:01:50;1.27;;;0.55;;
54388;SDS011;40975;50.390;8.640;2023-11-19T08:04:15;2.95;;;0.40;;
54388;SDS011;40975;50.390;8.640;2023-11-19T08:06:40;2.00;;;0.75;;
54388;SDS011;40975;50.390;8.640;2023-11-19T08:09:06;3.85;;;1.00;;
54388;SDS011;40975;50.390;8.640;2023-11-19T08:11:31;4.38;;;0.60;;
54388;SDS011;40975;50.390;8.640;2023-11-19T08:13:57;1.05;;;0.45;;
54388;SDS011;40975;50.390;8.640;2023-11-19T08:16:22;0.98;;;0.50;;
54388;SDS011;40975;50.390;8.640;2023-11-19T08:18:48;4.45;;;0.68;;
54388;SDS011;40975;50.390;8.640;2023-11-19T08:21:13;1.15;;;0.60;;
54388;SDS011;40975;50.390;8.640;2023-11-19T08:23:38;5.43;;;0.52;;
54388;SDS011;40975;50.390;8.640;2023-11-19T08:26:04;3.63;;;0.73;;
54388;SDS011;40975;50.390;8.640;2023-11-19T08:28:30;4.55;;;0.80;;
54388;SDS011;40975;50.390;8.640;2023-11-19T08:30:56;1.08;;;0.60;;
54388;SDS011;40975;50.390;8.640;2023-11-19T08:33:21;3.55;;;0.80;;
54388;SDS011;40975;50.390;8.640;2023-11-19T08:35:47;5.63;;;0.80;;
54388;SDS011;40975;50.390;8.640;2023-11-19T08:38:13;2.95;;;1.10;;
54388;SDS011;40975;50.390;8.640;2023-11-19T08:40:38;5.45;;;0.90;;
54388;SDS011;40975;50.390;8.640;2023-11-19T08:43:04;3.13;;;0.60;;
54388;SDS011;40975;50.390;8.640;2023-11-19T08:45:29;4.90;;;0.80;;
54388;SDS011;40975;50.390;8.640;2023-11-19T08:47:55;4.75;;;0.65;;
54388;SDS011;40975;50.390;8.640;2023-11-19T08:50:20;2.30;;;1.10;;
54388;SDS011;40975;50.390;8.640;2023-11-19T08:52:46;3.45;;;0.73;;
54388;SDS011;40975;50.390;8.640;2023-11-19T08:55:11;5.40;;;0.60;;
54388;SDS011;40975;50.390;8.640;2023-11-19T08:57:38;3.25;;;0.65;;
54388;SDS011;40975;50.390;8.640;2023-11-19T09:00:04;5.32;;;1.20;;
54388;SDS011;40975;50.390;8.640;2023-11-19T09:02:33;3.90;;;0.88;;
54388;SDS011;40975;50.390;8.640;2023-11-19T09:05:00;6.53;;;1.50;;
54388;SDS011;40975;50.390;8.640;2023-11-19T09:07:25;6.40;;;0.98;;
54388;SDS011;40975;50.390;8.640;2023-11-19T09:09:50;4.95;;;1.42;;
54388;SDS011;40975;50.390;8.640;2023-11-19T09:12:16;3.28;;;1.00;;
54388;SDS011;40975;50.390;8.640;2023-11-19T09:14:41;4.05;;;0.90;;
54388;SDS011;40975;50.390;8.640;2023-11-19T09:17:07;3.42;;;1.05;;
54388;SDS011;40975;50.390;8.640;2023-11-19T09:19:32;4.20;;;0.95;;
54388;SDS011;40975;50.390;8.640;2023-11-19T09:21:58;1.98;;;0.70;;
54388;SDS011;40975;50.390;8.640;2023-11-19T09:24:23;6.30;;;1.25;;
54388;SDS011;40975;50.390;8.640;2023-11-19T09:26:49;5.22;;;0.90;;
54388;SDS011;40975;50.390;8.640;2023-11-19T09:29:14;5.82;;;1.30;;
54388;SDS011;40975;50.390;8.640;2023-11-19T09:31:39;6.32;;;1.00;;
54388;SDS011;40975;50.390;8.640;2023-11-19T09:34:05;5.00;;;1.00;;
54388;SDS011;40975;50.390;8.640;2023-11-19T09:36:30;3.20;;;0.85;;
54388;SDS011;40975;50.390;8.640;2023-11-19T09:38:56;7.65;;;1.10;;
54388;SDS011;40975;50.390;8.640;2023-11-19T09:41:22;5.72;;;0.90;;
54388;SDS011;40975;50.390;8.640;2023-11-19T09:43:48;7.22;;;1.40;;
54388;SDS011;40975;50.390;8.640;2023-11-19T09:46:14;4.07;;;0.95;;
54388;SDS011;40975;50.390;8.640;2023-11-19T09:48:41;4.82;;;1.13;;
54388;SDS011;40975;50.390;8.640;2023-11-19T09:51:08;5.88;;;1.08;;
54388;SDS011;40975;50.390;8.640;2023-11-19T09:53:35;5.72;;;1.00;;
54388;SDS011;40975;50.390;8.640;2023-11-19T09:56:02;7.85;;;1.55;;
54388;SDS011;40975;50.390;8.640;2023-11-19T09:58:29;3.00;;;0.90;;
54388;SDS011;40975;50.390;8.640;2023-11-19T10:00:55;4.00;;;1.00;;
54388;SDS011;40975;50.390;8.640;2023-11-19T10:03:23;3.88;;;1.02;;
54388;SDS011;40975;50.390;8.640;2023-11-19T10:05:49;5.57;;;1.50;;
54388;SDS011;40975;50.390;8.640;2023-11-19T10:08:14;4.03;;;0.98;;
54388;SDS011;40975;50.390;8.640;2023-11-19T10:10:41;5.82;;;1.25;;
54388;SDS011;40975;50.390;8.640;2023-11-19T10:13:06;4.15;;;0.98;;
54388;SDS011;40975;50.390;8.640;2023-11-19T10:15:35;6.47;;;1.23;;
54388;SDS011;40975;50.390;8.640;2023-11-19T10:18:02;6.32;;;1.00;;
54388;SDS011;40975;50.390;8.640;2023-11-19T10:20:34;5.95;;;0.80;;
54388;SDS011;40975;50.390;8.640;2023-11-19T10:23:05;6.65;;;1.30;;
54388;SDS011;40975;50.390;8.640;2023-11-19T10:25:31;7.57;;;1.40;;
54388;SDS011;40975;50.390;8.640;2023-11-19T10:27:58;4.38;;;1.25;;
54388;SDS011;40975;50.390;8.640;2023-11-19T10:30:24;3.80;;;1.23;;
54388;SDS011;40975;50.390;8.640;2023-11-19T10:33:07;5.03;;;1.30;;
54388;SDS011;40975;50.390;8.640;2023-11-19T10:35:51;6.95;;;1.60;;
54388;SDS011;40975;50.390;8.640;2023-11-19T10:38:18;3.33;;;1.20;;
54388;SDS011;40975;50.390;8.640;2023-11-19T10:40:44;6.50;;;1.20;;
54388;SDS011;40975;50.390;8.640;2023-11-19T10:43:09;9.10;;;1.50;;
54388;SDS011;40975;50.390;8.640;2023-11-19T10:45:38;7.30;;;1.30;;
54388;SDS011;40975;50.390;8.640;2023-11-19T10:48:04;4.18;;;1.10;;
54388;SDS011;40975;50.390;8.640;2023-11-19T10:50:32;8.73;;;2.35;;
54388;SDS011;40975;50.390;8.640;2023-11-19T10:52:58;6.15;;;1.05;;
54388;SDS011;40975;50.390;8.640;2023-11-19T10:55:26;6.28;;;1.40;;
54388;SDS011;40975;50.390;8.640;2023-11-19T10:57:53;3.67;;;0.95;;
54388;SDS011;40975;50.390;8.640;2023-11-19T11:00:23;4.55;;;1.35;;
54388;SDS011;40975;50.390;8.640;2023-11-19T11:02:50;6.00;;;1.20;;
54388;SDS011;40975;50.390;8.640;2023-11-19T11:05:20;5.35;;;1.48;;
54388;SDS011;40975;50.390;8.640;2023-11-19T11:07:47;7.43;;;2.15;;
54388;SDS011;40975;50.390;8.640;2023-11-19T11:10:16;7.03;;;1.60;;
54388;SDS011;40975;50.390;8.640;2023-11-19T11:12:43;6.00;;;0.93;;
54388;SDS011;40975;50.390;8.640;2023-11-19T11:15:08;9.73;;;1.45;;
54388;SDS011;40975;50.390;8.640;2023-11-19T11:17:37;5.50;;;1.08;;
54388;SDS011;40975;50.390;8.640;2023-11-19T11:20:04;7.50;;;1.40;;
54388;SDS011;40975;50.390;8.640;2023-11-19T11:22:31;9.05;;;1.80;;
54388;SDS011;40975;50.390;8.640;2023-11-19T11:25:22;10.13;;;1.63;;
54388;SDS011;40975;50.390;8.640;2023-11-19T11:28:01;9.30;;;1.38;;
54388;SDS011;40975;50.390;8.640;2023-11-19T11:30:39;8.53;;;1.60;;
54388;SDS011;40975;50.390;8.640;2023-11-19T11:36:57;12.82;;;1.63;;
54388;SDS011;40975;50.390;8.640;2023-11-19T11:39:31;5.20;;;1.10;;
54388;SDS011;40975;50.390;8.640;2023-11-19T11:42:30;7.15;;;0.98;;
54388;SDS011;40975;50.390;8.640;2023-11-19T11:44:59;5.47;;;1.52;;
54388;SDS011;40975;50.390;8.640;2023-11-19T11:50:07;10.23;;;1.80;;
54388;SDS011;40975;50.390;8.640;2023-11-19T11:52:34;8.98;;;1.48;;
54388;SDS011;40975;50.390;8.640;2023-11-19T11:56:07;6.10;;;1.65;;
54388;SDS011;40975;50.390;8.640;2023-11-19T11:58:17;5.00;;;1.27;;
54388;SDS011;40975;50.390;8.640;2023-11-19T12:00:43;7.22;;;1.38;;
54388;SDS011;40975;50.390;8.640;2023-11-19T12:03:08;8.90;;;1.92;;
54388;SDS011;40975;50.390;8.640;2023-11-19T12:05:45;7.70;;;1.35;;
54388;SDS011;40975;50.390;8.640;2023-11-19T12:08:11;6.10;;;1.55;;
54388;SDS011;40975;50.390;8.640;2023-11-19T12:13:12;5.78;;;1.58;;
54388;SDS011;40975;50.390;8.640;2023-11-19T12:18:26;4.50;;;1.23;;
54388;SDS011;40975;50.390;8.640;2023-11-19T12:20:52;4.18;;;1.10;;
54388;SDS011;40975;50.390;8.640;2023-11-19T12:23:17;4.55;;;1.42;;
54388;SDS011;40975;50.390;8.640;2023-11-19T12:25:42;7.07;;;1.60;;
54388;SDS011;40975;50.390;8.640;2023-11-19T12:28:13;6.25;;;1.45;;
54388;SDS011;40975;50.390;8.640;2023-11-19T12:30:39;4.40;;;0.98;;
54388;SDS011;40975;50.390;8.640;2023-11-19T12:33:08;12.48;;;1.70;;
54388;SDS011;40975;50.390;8.640;2023-11-19T12:35:40;8.90;;;1.45;;
54388;SDS011;40975;50.390;8.640;2023-11-19T12:38:06;7.68;;;1.48;;
54388;SDS011;40975;50.390;8.640;2023-11-19T12:40:31;5.07;;;1.33;;
54388;SDS011;40975;50.390;8.640;2023-11-19T12:42:57;4.80;;;1.00;;
54388;SDS011;40975;50.390;8.640;2023-11-19T12:45:24;12.30;;;1.92;;
54388;SDS011;40975;50.390;8.640;2023-11-19T12:47:49;8.48;;;1.48;;
54388;SDS011;40975;50.390;8.640;2023-11-19T12:50:17;6.65;;;2.17;;
54388;SDS011;40975;50.390;8.640;2023-11-19T12:52:54;8.18;;;1.17;;
54388;SDS011;40975;50.390;8.640;2023-11-19T12:55:25;12.55;;;1.27;;
54388;SDS011;40975;50.390;8.640;2023-11-19T12:57:51;5.40;;;1.40;;
54388;SDS011;40975;50.390;8.640;2023-11-19T13:00:18;6.60;;;1.50;;
54388;SDS011;40975;50.390;8.640;2023-11-19T13:02:48;4.80;;;0.70;;
54388;SDS011;40975;50.390;8.640;2023-11-19T13:05:28;4.03;;;0.90;;
54388;SDS011;40975;50.390;8.640;2023-11-19T13:08:02;3.67;;;0.65;;
54388;SDS011;40975;50.390;8.640;2023-11-19T13:10:29;7.55;;;1.45;;
54388;SDS011;40975;50.390;8.640;2023-11-19T13:13:05;4.75;;;0.90;;
54388;SDS011;40975;50.390;8.640;2023-11-19T13:15:33;6.35;;;1.10;;
54388;SDS011;40975;50.390;8.640;2023-11-19T13:17:59;3.97;;;0.90;;
54388;SDS011;40975;50.390;8.640;2023-11-19T13:20:25;5.95;;;0.82;;
54388;SDS011;40975;50.390;8.640;2023-11-19T13:23:08;5.65;;;0.88;;
54388;SDS011;40975;50.390;8.640;2023-11-19T13:25:34;4.47;;;0.85;;
54388;SDS011;40975;50.390;8.640;2023-11-19T13:27:59;4.03;;;0.70;;
54388;SDS011;40975;50.390;8.640;2023-11-19T13:30:24;4.63;;;0.70;;
54388;SDS011;40975;50.390;8.640;2023-11-19T13:32:51;3.20;;;0.88;;
54388;SDS011;40975;50.390;8.640;2023-11-19T13:35:18;8.45;;;0.90;;
54388;SDS011;40975;50.390;8.640;2023-11-19T13:37:44;7.10;;;1.40;;
54388;SDS011;40975;50.390;8.640;2023-11-19T13:40:10;4.50;;;0.90;;
54388;SDS011;40975;50.390;8.640;2023-11-19T13:42:38;5.15;;;1.00;;
54388;SDS011;40975;50.390;8.640;2023-11-19T13:45:08;5.25;;;0.90;;
54388;SDS011;40975;50.390;8.640;2023-11-19T13:47:36;5.72;;;0.70;;
54388;SDS011;40975;50.390;8.640;2023-11-19T13:50:02;3.28;;;0.90;;
54388;SDS011;40975;50.390;8.640;2023-11-19T13:52:31;9.15;;;1.38;;
54388;SDS011;40975;50.390;8.640;2023-11-19T13:54:56;4.75;;;1.02;;
54388;SDS011;40975;50.390;8.640;2023-11-19T13:57:21;7.95;;;1.10;;
54388;SDS011;40975;50.390;8.640;2023-11-19T13:59:47;5.28;;;0.77;;
54388;SDS011;40975;50.390;8.640;2023-11-19T14:02:12;6.57;;;1.20;;
54388;SDS011;40975;50.390;8.640;2023-11-19T14:04:37;7.43;;;0.85;;
54388;SDS011;40975;50.390;8.640;2023-11-19T14:07:03;5.60;;;1.40;;
54388;SDS011;40975;50.390;8.640;2023-11-19T14:09:28;11.68;;;1.13;;
54388;SDS011;40975;50.390;8.640;2023-11-19T14:11:54;6.18;;;1.08;;
54388;SDS011;40975;50.390;8.640;2023-11-19T14:14:19;5.57;;;1.25;;
54388;SDS011;40975;50.390;8.640;2023-11-19T14:16:44;6.47;;;1.33;;
54388;SDS011;40975;50.390;8.640;2023-11-19T14:19:10;4.60;;;1.17;;
54388;SDS011;40975;50.390;8.640;2023-11-19T14:21:36;5.47;;;1.10;;
54388;SDS011;40975;50.390;8.640;2023-11-19T14:24:01;6.18;;;0.85;;
54388;SDS011;40975;50.390;8.640;2023-11-19T14:26:27;5.35;;;1.00;;
54388;SDS011;40975;50.390;8.640;2023-11-19T14:28:52;5.45;;;1.23;;
54388;SDS011;40975;50.390;8.640;2023-11-19T14:31:17;5.68;;;1.02;;
54388;SDS011;40975;50.390;8.640;2023-11-19T14:33:42;3.40;;;1.10;;
54388;SDS011;40975;50.390;8.640;2023-11-19T14:36:08;8.73;;;1.08;;
54388;SDS011;40975;50.390;8.640;2023-11-19T14:38:33;8.20;;;0.90;;
54388;SDS011;40975;50.390;8.640;2023-11-19T14:40:59;5.25;;;1.00;;
54388;SDS011;40975;50.390;8.640;2023-11-19T14:43:24;3.90;;;1.05;;
54388;SDS011;40975;50.390;8.640;2023-11-19T14:45:50;3.55;;;1.17;;
54388;SDS011;40975;50.390;8.640;2023-11-19T14:48:16;8.75;;;1.35;;
54388;SDS011;40975;50.390;8.640;2023-11-19T14:50:42;9.43;;;0.90;;
54388;SDS011;40975;50.390;8.640;2023-11-19T14:53:09;3.65;;;1.10;;
54388;SDS011;40975;50.390;8.640;2023-11-19T14:55:35;4.85;;;0.70;;
54388;SDS011;40975;50.390;8.640;2023-11-19T14:58:00;5.88;;;0.82;;